Time;durP1;ratioP1;P1;durP2;ratioP2;P2;SDS_P1;SDS_P2;PMS_P1;PMS_P2;Temp;Humidity;BMP_temperature;BMP_pressure;BME280_temperature;BME280_humidity;BME280_pressure;Samples;Min_cycle;Max_cycle;Signal;HPM_P1;HPM_P2
2023/08/23 00:00:27;;;;;;;19.48;3.67;;;;;;;24.08;42.55;100077.92;1707786;84;22588;-78
2023/08/23 00:03:34;;;;;;;13.98;3.20;;;;;;;24.43;41.84;100075.06;1732080;82;21300;-76
2023/08/23 00:06:41;;;;;;;9.83;3.72;;;;;;;24.41;41.95;100069.73;1720809;83;21232;-77
2023/08/23 00:09:49;;;;;;;10.65;3.50;;;;;;;24.31;42.08;100071.62;1773776;81;21315;-77
2023/08/23 00:12:56;;;;;;;7.90;3.60;;;;;;;24.41;41.98;100072.52;1772574;81;21339;-77
2023/08/23 00:16:04;;;;;;;6.60;3.58;;;;;;;24.68;41.53;100065.35;1773703;81;21866;-77
2023/08/23 00:19:09;;;;;;;7.87;3.58;;;;;;;24.53;41.91;100068.11;1773668;81;21284;-77
2023/08/23 00:22:15;;;;;;;9.83;3.55;;;;;;;24.20;42.35;100076.33;1773364;81;21347;-77
2023/08/23 00:25:21;;;;;;;8.25;3.20;;;;;;;24.54;41.82;100076.77;1774136;81;21320;-77
2023/08/23 00:28:27;;;;;;;7.03;2.95;;;;;;;24.01;42.88;100084.33;1773780;81;21585;-77
2023/08/23 00:31:33;;;;;;;13.85;3.10;;;;;;;24.15;42.66;100086.92;1773854;81;21340;-77
2023/08/23 00:34:40;;;;;;;7.70;3.30;;;;;;;24.22;42.42;100080.52;1719926;83;21323;-77
2023/08/23 00:37:46;;;;;;;14.80;3.65;;;;;;;24.37;42.20;100086.79;1739834;82;21901;-77
2023/08/23 00:40:52;;;;;;;5.50;3.00;;;;;;;24.36;42.18;100082.28;1712878;83;21213;-77
2023/08/23 00:43:58;;;;;;;16.50;3.12;;;;;;;24.13;42.61;100086.33;1740339;82;21303;-78
2023/08/23 00:47:07;;;;;;;6.28;2.92;;;;;;;24.44;42.15;100085.13;1711756;83;21327;-78
2023/08/23 00:50:17;;;;;;;6.80;3.50;;;;;;;24.60;41.83;100078.46;1738101;82;21307;-78
2023/08/23 00:53:22;;;;;;;4.33;2.58;;;;;;;24.50;42.03;100075.64;1711150;83;21346;-78
2023/08/23 00:56:26;;;;;;;7.75;2.90;;;;;;;24.45;42.30;100079.81;1720941;83;21310;-78
2023/08/23 00:59:32;;;;;;;12.23;3.37;;;;;;;24.50;42.21;100077.03;1720483;83;21302;-78
2023/08/23 01:02:38;;;;;;;10.20;3.20;;;;;;;24.46;42.32;100080.09;1720063;83;21349;-78
2023/08/23 01:06:17;;;;;;;6.20;3.12;;;;;;;24.68;41.85;100079.33;1712046;83;22618;-78
2023/08/23 01:09:49;;;;;;;5.62;3.47;;;;;;;24.50;42.17;100082.62;1732512;83;21320;-78
2023/08/23 01:13:05;;;;;;;6.78;2.77;;;;;;;24.47;42.34;100086.83;1731921;82;21364;-78
2023/08/23 01:16:12;;;;;;;3.77;2.95;;;;;;;24.56;42.17;100077.36;1731016;83;21316;-77
2023/08/23 01:19:26;;;;;;;10.72;3.50;;;;;;;24.53;42.15;100077.89;1693887;83;21901;-77
2023/08/23 01:22:32;;;;;;;8.73;3.10;;;;;;;24.61;42.05;100075.14;1724556;83;21310;-77
2023/08/23 01:25:38;;;;;;;9.45;3.62;;;;;;;24.65;42.04;100071.48;1725853;83;21342;-77
2023/08/23 01:28:42;;;;;;;11.30;3.35;;;;;;;24.69;42.03;100072.62;1705369;83;21299;-77
2023/08/23 01:31:51;;;;;;;10.75;3.42;;;;;;;24.60;42.19;100075.66;1725787;83;21315;-77
2023/08/23 01:35:01;;;;;;;10.70;3.83;;;;;;;24.50;42.31;100074.23;1718166;82;21333;-77
2023/08/23 01:38:08;;;;;;;8.30;3.60;;;;;;;24.19;43.07;100079.68;1772837;81;21327;-77
2023/08/23 01:41:14;;;;;;;14.83;3.50;;;;;;;24.31;42.83;100076.64;1773770;81;21304;-77
2023/08/23 01:44:19;;;;;;;9.85;3.45;;;;;;;24.16;43.12;100075.19;1772660;81;21336;-77
2023/08/23 01:47:25;;;;;;;7.92;3.55;;;;;;;24.03;43.43;100070.92;1770340;81;21288;-78
2023/08/23 01:50:32;;;;;;;7.92;3.47;;;;;;;24.30;43.00;100075.53;1743158;82;21308;-78
2023/08/23 01:53:38;;;;;;;14.90;4.37;;;;;;;24.23;43.08;100072.44;1742827;82;21629;-79
2023/08/23 01:56:43;;;;;;;8.63;3.50;;;;;;;24.12;43.29;100074.05;1743210;82;21299;-78
2023/08/23 01:59:52;;;;;;;8.25;3.75;;;;;;;23.72;44.09;100076.89;1743368;82;21307;-77
2023/08/23 02:03:01;;;;;;;6.10;3.42;;;;;;;23.37;45.15;100074.62;1743199;82;21264;-77
2023/08/23 02:06:08;;;;;;;7.40;4.22;;;;;;;23.57;44.66;100071.14;1743251;82;21319;-77
2023/08/23 02:09:15;;;;;;;11.20;3.58;;;;;;;23.67;44.47;100071.27;1743117;82;21304;-77
2023/08/23 02:12:21;;;;;;;12.35;3.80;;;;;;;23.77;44.30;100077.48;1742874;82;21653;-77
2023/08/23 02:15:27;;;;;;;9.05;4.40;;;;;;;23.86;44.06;100083.69;1742902;82;21300;-77
2023/08/23 02:18:34;;;;;;;6.10;3.85;;;;;;;24.00;43.83;100080.42;1739554;82;21850;-77
2023/08/23 02:21:42;;;;;;;5.85;3.45;;;;;;;24.00;43.77;100082.66;1705004;83;21193;-77
2023/08/23 02:24:47;;;;;;;13.13;4.15;;;;;;;24.02;43.70;100078.19;1704038;84;21311;-78
2023/08/23 02:27:53;;;;;;;6.87;3.98;;;;;;;24.02;43.66;100083.21;1703742;84;21300;-77
2023/08/23 02:31:09;;;;;;;5.58;3.62;;;;;;;23.92;43.83;100078.97;1705433;84;21299;-77
2023/08/23 02:34:16;;;;;;;8.03;4.22;;;;;;;24.06;43.58;100077.93;1736209;82;21305;-78
2023/08/23 02:37:22;;;;;;;16.60;4.05;;;;;;;24.05;43.55;100075.70;1800999;79;21292;-77
2023/08/23 02:40:27;;;;;;;10.80;3.75;;;;;;;24.04;43.57;100075.39;1801188;79;21836;-77
2023/08/23 02:43:32;;;;;;;11.97;3.92;;;;;;;23.94;43.76;100073.94;1800653;79;21358;-78
2023/08/23 02:46:38;;;;;;;6.40;3.52;;;;;;;23.86;43.86;100070.28;1798245;79;21351;-77
2023/08/23 02:49:46;;;;;;;16.10;3.87;;;;;;;24.01;43.61;100074.55;1799083;79;21912;-77
2023/08/23 02:52:52;;;;;;;7.00;3.50;;;;;;;24.04;43.58;100072.59;1799094;79;22167;-78
2023/08/23 02:55:58;;;;;;;10.80;4.35;;;;;;;24.23;43.12;100071.05;1801175;79;21309;-78
2023/08/23 02:59:04;;;;;;;14.75;4.53;;;;;;;24.32;43.02;100070.50;1800938;79;21876;-78
2023/08/23 03:02:11;;;;;;;8.00;3.62;;;;;;;24.08;43.41;100079.33;1801027;79;21325;-78
2023/08/23 03:05:18;;;;;;;8.88;3.80;;;;;;;24.23;43.23;100082.78;1800118;79;21336;-78
2023/08/23 03:08:25;;;;;;;8.13;4.28;;;;;;;24.30;43.10;100074.14;1801244;79;21301;-78
2023/08/23 03:11:30;;;;;;;12.80;4.22;;;;;;;24.40;42.94;100084.83;1801127;79;21313;-78
2023/08/23 03:14:36;;;;;;;11.35;4.60;;;;;;;24.57;42.65;100084.63;1799773;79;21748;-78
2023/08/23 03:17:42;;;;;;;13.85;4.30;;;;;;;24.85;42.13;100086.11;1800878;79;21293;-78
2023/08/23 03:20:51;;;;;;;9.58;4.40;;;;;;;24.74;42.36;100081.58;1800337;79;21360;-78
2023/08/23 03:23:56;;;;;;;11.63;4.40;;;;;;;24.91;42.16;100086.95;1784260;79;21305;-78
2023/08/23 03:27:02;;;;;;;5.22;4.08;;;;;;;24.29;43.34;100082.23;1801074;79;21904;-77
2023/08/23 03:30:09;;;;;;;7.72;3.95;;;;;;;24.56;42.99;100083.48;1801083;79;21297;-77
2023/08/23 03:33:15;;;;;;;9.20;4.10;;;;;;;25.02;42.22;100085.84;1801483;79;21297;-78
2023/08/23 03:36:21;;;;;;;9.13;3.98;;;;;;;24.66;42.80;100088.56;1797960;79;21297;-78
2023/08/23 03:39:28;;;;;;;7.15;4.10;;;;;;;25.19;42.02;100096.27;1801164;79;21325;-78
2023/08/23 03:42:34;;;;;;;8.58;4.40;;;;;;;24.98;42.45;100091.17;1801303;79;21305;-78
2023/08/23 03:45:41;;;;;;;8.75;3.60;;;;;;;25.41;42.04;100093.77;1800464;79;21946;-79
2023/08/23 03:48:48;;;;;;;10.30;3.80;;;;;;;25.55;42.00;100095.42;1823456;78;22625;-77
2023/08/23 03:51:54;;;;;;;10.32;3.70;;;;;;;25.72;41.84;100098.21;1832703;78;21970;-78
2023/08/23 03:55:01;;;;;;;11.40;3.95;;;;;;;26.02;41.40;100089.53;1762756;81;21366;-78
2023/08/23 03:58:07;;;;;;;12.35;5.03;;;;;;;26.34;40.90;100086.32;1833781;78;21280;-78
2023/08/23 04:01:14;;;;;;;7.15;4.00;;;;;;;26.41;40.79;100087.44;1833716;78;21668;-78
2023/08/23 04:04:19;;;;;;;8.45;4.10;;;;;;;26.43;40.87;100093.61;1832104;78;21817;-78
2023/08/23 04:07:25;;;;;;;17.98;4.95;;;;;;;26.60;40.65;100092.70;1832160;78;21327;-77
2023/08/23 04:10:32;;;;;;;12.80;3.95;;;;;;;26.52;40.70;100097.50;1833771;78;21296;-77
2023/08/23 04:13:38;;;;;;;6.72;3.42;;;;;;;26.73;40.28;100094.89;1762911;81;21323;-77
2023/08/23 04:16:43;;;;;;;13.40;3.87;;;;;;;27.26;39.28;100097.10;1832455;78;21933;-78
2023/08/23 04:19:49;;;;;;;11.10;3.70;;;;;;;27.34;39.21;100099.86;1833971;78;21283;-78
2023/08/23 04:22:55;;;;;;;6.22;4.00;;;;;;;27.51;38.93;100098.86;1833885;78;21315;-77
2023/08/23 04:26:00;;;;;;;13.65;3.42;;;;;;;27.57;38.65;100101.05;1762818;81;21360;-78
2023/08/23 04:29:05;;;;;;;9.73;4.00;;;;;;;27.81;38.13;100103.95;1833914;78;21312;-78
2023/08/23 04:32:12;;;;;;;8.08;3.77;;;;;;;27.81;38.18;100099.73;1763087;81;21851;-78
2023/08/23 04:35:18;;;;;;;7.17;3.50;;;;;;;27.53;38.49;100099.99;1801134;79;21327;-78
2023/08/23 04:38:23;;;;;;;14.75;3.67;;;;;;;27.65;38.26;100106.88;1799398;79;21278;-78
2023/08/23 04:41:30;;;;;;;14.13;4.10;;;;;;;27.90;38.12;100115.69;1801017;79;21282;-78
2023/08/23 04:44:36;;;;;;;12.40;3.80;;;;;;;28.06;37.68;100114.13;1801366;79;21845;-78
2023/08/23 04:47:43;;;;;;;14.07;4.10;;;;;;;28.14;38.08;100113.48;1801094;79;21291;-78
2023/08/23 04:50:50;;;;;;;15.10;4.25;;;;;;;28.47;37.61;100107.50;1800827;79;21295;-77
2023/08/23 04:53:55;;;;;;;11.55;3.60;;;;;;;28.60;37.38;100109.56;1801174;79;21228;-77
2023/08/23 04:57:04;;;;;;;13.05;4.45;;;;;;;28.48;37.94;100110.01;1798256;79;21371;-77
2023/08/23 05:00:09;;;;;;;11.28;3.70;;;;;;;28.80;37.83;100112.70;1799422;79;21292;-77
2023/08/23 05:03:15;;;;;;;17.35;3.52;;;;;;;28.85;37.56;100107.58;1799300;79;22504;-77
2023/08/23 05:06:26;;;;;;;8.73;4.00;;;;;;;28.62;38.05;100112.09;1797607;79;21285;-78
2023/08/23 05:09:36;;;;;;;9.68;3.90;;;;;;;28.22;38.93;100112.80;1799084;79;21336;-79
2023/08/23 05:12:43;;;;;;;8.68;4.10;;;;;;;28.81;38.23;100113.53;1798822;79;21296;-79
2023/08/23 05:15:49;;;;;;;21.00;4.90;;;;;;;28.97;38.07;100118.66;1799090;79;22570;-77
2023/08/23 05:18:55;;;;;;;11.83;4.50;;;;;;;29.12;37.99;100119.00;1799123;79;21912;-78
2023/08/23 05:22:04;;;;;;;8.83;3.80;;;;;;;29.31;37.88;100113.36;1798053;79;21364;-78
2023/08/23 05:25:11;;;;;;;13.98;4.35;;;;;;;29.91;36.82;100121.97;1798871;79;21839;-78
2023/08/23 05:28:18;;;;;;;11.25;4.60;;;;;;;29.69;37.01;100122.66;1797360;79;21319;-78
2023/08/23 05:31:24;;;;;;;14.70;4.83;;;;;;;30.05;36.65;100117.77;1799298;79;21296;-79
2023/08/23 05:34:32;;;;;;;6.70;3.22;;;;;;;29.26;37.86;100129.77;1799339;79;21250;-78
2023/08/23 05:37:39;;;;;;;6.47;3.60;;;;;;;29.46;37.47;100123.58;1797753;79;21325;-78
2023/08/23 05:40:47;;;;;;;7.47;3.40;;;;;;;30.26;36.57;100120.50;1809623;79;21308;-77
2023/08/23 05:43:53;;;;;;;12.90;4.08;;;;;;;30.47;36.53;100128.55;1809673;79;21325;-78
2023/08/23 05:46:59;;;;;;;8.93;3.58;;;;;;;30.71;36.22;100129.77;1808987;79;21305;-77
2023/08/23 05:50:06;;;;;;;11.05;4.37;;;;;;;30.18;36.49;100132.50;1808654;79;21299;-77
2023/08/23 05:53:18;;;;;;;13.55;7.17;;;;;;;30.56;35.96;100135.13;1809757;79;21322;-78
2023/08/23 05:56:20;;;;;;;16.87;7.95;;;;;;;30.47;35.93;100135.02;1810221;79;21277;-77
2023/08/23 05:59:26;;;;;;;25.05;9.90;;;;;;;30.57;35.68;100138.78;1810060;79;21287;-77
2023/08/23 06:02:32;;;;;;;22.55;9.80;;;;;;;30.96;35.12;100124.99;1810250;79;21272;-78
2023/08/23 06:05:40;;;;;;;23.98;11.08;;;;;;;30.78;35.57;100122.56;1810370;79;21310;-78
2023/08/23 06:08:47;;;;;;;45.88;17.52;;;;;;;30.85;34.96;100126.94;1809224;79;21906;-78
2023/08/23 06:11:54;;;;;;;58.65;22.15;;;;;;;30.92;35.22;100128.77;1810537;79;21304;-78
2023/08/23 06:15:04;;;;;;;86.15;29.80;;;;;;;30.97;35.13;100135.71;1810535;79;21312;-77
2023/08/23 06:18:11;;;;;;;;;;;;;;;31.09;34.80;100139.38;1812461;79;21943;-77
2023/08/23 06:21:16;;;;;;;53.00;24.75;;;;;;;31.21;34.70;100148.16;1810255;79;20311;-78
2023/08/23 06:24:23;;;;;;;16.45;9.45;;;;;;;30.65;35.46;100146.53;1808958;79;21340;-77
2023/08/23 06:27:30;;;;;;;10.55;5.75;;;;;;;30.84;34.98;100149.27;1809485;79;21943;-77
2023/08/23 06:30:35;;;;;;;14.30;5.55;;;;;;;30.56;35.46;100154.89;1809636;79;21871;-77
2023/08/23 06:33:41;;;;;;;9.50;4.33;;;;;;;30.36;35.71;100149.09;1808480;79;21859;-78
2023/08/23 06:36:46;;;;;;;8.85;5.20;;;;;;;30.50;35.50;100150.50;1810103;79;21887;-77
2023/08/23 06:39:52;;;;;;;10.05;4.10;;;;;;;30.70;35.25;100162.78;1801630;79;21337;-78
2023/08/23 06:42:59;;;;;;;8.95;4.65;;;;;;;30.80;34.22;100160.34;1799460;79;21317;-78
2023/08/23 06:46:04;;;;;;;6.70;3.92;;;;;;;30.51;34.69;100167.69;1799512;79;21305;-78
2023/08/23 06:49:11;;;;;;;15.28;3.47;;;;;;;30.72;34.09;100176.02;1798025;79;21309;-78
2023/08/23 06:52:17;;;;;;;5.58;2.12;;;;;;;30.98;34.29;100159.39;1799397;79;21602;-78
2023/08/23 06:55:25;;;;;;;8.15;1.80;;;;;;;30.92;31.99;100150.77;1797751;79;21363;-77
2023/08/23 06:58:30;;;;;;;5.37;2.37;;;;;;;30.96;31.37;100169.31;1798351;79;21343;-77
2023/08/23 07:01:36;;;;;;;5.17;2.10;;;;;;;31.22;31.34;100161.95;1799213;79;21318;-77
2023/08/23 07:04:41;;;;;;;4.42;2.05;;;;;;;31.08;30.83;100159.73;1837868;78;21283;-78
2023/08/23 07:07:47;;;;;;;5.67;2.30;;;;;;;31.21;31.42;100157.46;1762594;81;21965;-78
2023/08/23 07:10:53;;;;;;;4.92;2.27;;;;;;;31.31;31.53;100159.24;1798989;79;21335;-78
2023/08/23 07:13:59;;;;;;;7.90;2.00;;;;;;;31.21;32.04;100158.87;1799187;79;21330;-78
2023/08/23 07:17:05;;;;;;;6.97;2.27;;;;;;;31.55;32.09;100158.37;1797615;79;21313;-78
2023/08/23 07:20:13;;;;;;;8.65;2.83;;;;;;;31.64;31.42;100165.51;1797705;79;21343;-78
2023/08/23 07:31:11;;;;;;;11.22;2.37;;;;;;;31.88;29.87;100168.05;1799168;79;21352;-78
2023/08/23 07:34:18;;;;;;;4.22;1.72;;;;;;;31.68;30.07;100170.78;1799014;79;21310;-78
2023/08/23 07:37:24;;;;;;;8.78;2.17;;;;;;;31.90;30.12;100160.64;1798821;79;21384;-77
2023/08/23 07:40:31;;;;;;;5.60;1.90;;;;;;;31.95;29.93;100163.36;1799279;79;21935;-77
2023/08/23 07:43:37;;;;;;;8.98;1.92;;;;;;;31.93;29.64;100160.84;1811767;79;21297;-77
2023/08/23 07:46:42;;;;;;;5.75;2.30;;;;;;;32.31;29.06;100156.98;1811799;79;21339;-77
2023/08/23 07:49:51;;;;;;;3.35;1.77;;;;;;;32.40;29.62;100157.64;1812144;79;21331;-78
2023/08/23 07:52:59;;;;;;;9.98;2.33;;;;;;;32.42;29.77;100153.34;1813297;79;21318;-77
2023/08/23 07:56:05;;;;;;;3.70;1.75;;;;;;;32.56;29.52;100146.15;1811966;79;21878;-77
2023/08/23 07:59:12;;;;;;;5.60;1.50;;;;;;;33.21;29.37;100143.06;1826716;78;21358;-77
2023/08/23 08:02:17;;;;;;;8.35;2.15;;;;;;;32.85;28.33;100142.73;1826932;78;21268;-77
2023/08/23 08:05:22;;;;;;;6.35;2.15;;;;;;;32.86;28.51;100136.48;1813333;79;21306;-77
2023/08/23 08:08:29;;;;;;;4.05;1.95;;;;;;;33.18;28.92;100142.33;1813674;79;21310;-77
2023/08/23 08:11:35;;;;;;;6.75;2.00;;;;;;;33.20;28.12;100143.65;1812408;79;21338;-77
2023/08/23 08:14:41;;;;;;;4.08;1.77;;;;;;;33.05;28.17;100146.97;1813461;79;21308;-77
2023/08/23 08:17:50;;;;;;;8.48;2.10;;;;;;;33.03;28.75;100136.53;1813660;78;21313;-77
2023/08/23 08:20:55;;;;;;;3.55;1.82;;;;;;;32.78;28.76;100143.78;1813912;79;21750;-78
2023/08/23 08:24:03;;;;;;;4.62;1.80;;;;;;;32.82;28.46;100149.05;1811664;79;21300;-78
2023/08/23 08:27:13;;;;;;;3.30;2.00;;;;;;;32.69;28.73;100138.09;1825152;77;21318;-79
2023/08/23 08:30:19;;;;;;;;;;;;;;;32.64;28.57;100143.91;1849314;77;21319;-79
2023/08/23 08:33:25;;;;;;;3.58;1.62;;;;;;;32.92;28.40;100139.44;1829014;77;20293;-78
2023/08/23 08:36:32;;;;;;;10.85;2.35;;;;;;;33.06;28.11;100140.12;1813392;79;21307;-78
2023/08/23 08:39:38;;;;;;;7.22;1.77;;;;;;;33.13;28.31;100137.66;1813375;79;21335;-78
2023/08/23 08:42:47;;;;;;;3.50;1.90;;;;;;;33.19;27.45;100136.31;1803326;79;21336;-78
2023/08/23 08:45:54;;;;;;;5.92;1.82;;;;;;;33.00;28.13;100134.38;1799755;79;21312;-78
2023/08/23 08:48:58;;;;;;;9.10;1.95;;;;;;;33.38;28.30;100145.09;1824745;78;21311;-78
2023/08/23 08:52:06;;;;;;;4.40;1.70;;;;;;;33.49;27.57;100136.52;1814800;78;22225;-77
2023/08/23 08:55:12;;;;;;;6.95;1.67;;;;;;;33.33;27.60;100127.08;1832521;78;21280;-78
2023/08/23 08:58:21;;;;;;;8.43;1.90;;;;;;;33.44;27.80;100133.85;1805940;78;22292;-78
2023/08/23 09:01:30;;;;;;;4.35;1.60;;;;;;;33.33;27.74;100132.74;1799703;79;21288;-78
2023/08/23 09:04:35;;;;;;;3.98;1.80;;;;;;;33.06;27.80;100119.71;1798237;79;21292;-78
2023/08/23 09:07:41;;;;;;;6.20;1.92;;;;;;;33.07;28.08;100119.13;1799968;79;21877;-78
2023/08/23 09:10:48;;;;;;;6.05;1.82;;;;;;;32.80;28.16;100130.98;1790394;79;21366;-78
2023/08/23 09:13:55;;;;;;;6.10;1.75;;;;;;;32.65;28.38;100122.92;1799990;79;21874;-78
2023/08/23 09:17:02;;;;;;;7.97;1.92;;;;;;;32.88;28.60;100126.48;1799711;79;21320;-78
2023/08/23 09:20:13;;;;;;;7.30;2.02;;;;;;;33.02;28.13;100133.45;1799238;79;21736;-77
2023/08/23 09:23:20;;;;;;;6.87;1.77;;;;;;;32.73;28.93;100121.28;1799098;79;21280;-77
2023/08/23 09:26:25;;;;;;;6.83;1.82;;;;;;;32.73;29.25;100120.70;1798561;79;21186;-77
2023/08/23 09:29:34;;;;;;;5.03;1.70;;;;;;;32.69;28.66;100128.18;1800007;79;21312;-77
2023/08/23 09:32:40;;;;;;;7.13;2.10;;;;;;;32.92;28.48;100130.94;1798846;79;21323;-77
2023/08/23 09:35:58;;;;;;;9.50;1.80;;;;;;;33.17;28.22;100117.97;1799737;79;21411;-77
2023/08/23 09:39:06;;;;;;;2.77;1.47;;;;;;;32.78;28.51;100126.80;1798413;79;21331;-78
2023/08/23 09:42:13;;;;;;;8.00;1.75;;;;;;;32.71;28.63;100117.38;1799032;79;21974;-78
2023/08/23 09:45:23;;;;;;;5.30;2.00;;;;;;;33.13;28.26;100122.07;1813815;79;22399;-78
2023/08/23 09:48:28;;;;;;;2.77;1.80;;;;;;;32.63;29.09;100118.77;1813553;79;21268;-78
2023/08/23 09:51:35;;;;;;;4.35;1.60;;;;;;;32.48;29.09;100130.79;1812389;79;21319;-77
2023/08/23 09:55:14;;;;;;;4.95;1.92;;;;;;;32.91;28.51;100120.78;1813381;79;21308;-77
2023/08/23 09:58:20;;;;;;;5.95;2.12;;;;;;;32.98;27.71;100121.97;1811892;79;21330;-77
2023/08/23 10:01:26;;;;;;;6.03;1.67;;;;;;;32.82;27.75;100120.14;1812121;79;21381;-77
2023/08/23 10:04:33;;;;;;;7.15;1.50;;;;;;;32.92;28.09;100118.20;1812815;79;21271;-77
2023/08/23 10:07:43;;;;;;;3.58;1.30;;;;;;;33.13;27.92;100126.32;1812743;79;21295;-78
2023/08/23 10:10:52;;;;;;;6.20;1.67;;;;;;;32.67;28.01;100111.28;1811257;79;21307;-78
2023/08/23 10:13:59;;;;;;;4.78;1.67;;;;;;;32.59;28.10;100120.00;1813230;79;21323;-77
2023/08/23 10:17:04;;;;;;;5.62;2.22;;;;;;;32.67;28.80;100109.88;1812922;79;21287;-77
2023/08/23 10:20:16;;;;;;;6.35;1.90;;;;;;;32.62;27.91;100110.86;1813052;79;21315;-77
2023/08/23 10:23:24;;;;;;;2.77;1.37;;;;;;;32.53;27.62;100108.58;1813094;79;21311;-77
2023/08/23 10:26:30;;;;;;;4.58;1.60;;;;;;;32.71;27.74;100108.88;1811571;79;22183;-77
2023/08/23 10:29:36;;;;;;;2.72;1.62;;;;;;;32.56;27.63;100107.94;1811632;79;21331;-77
2023/08/23 10:32:46;;;;;;;7.12;1.95;;;;;;;32.63;27.51;100101.19;1788767;79;21308;-78
2023/08/23 10:35:54;;;;;;;4.15;1.70;;;;;;;32.93;27.41;100103.69;1813457;79;21273;-77
2023/08/23 10:39:03;;;;;;;2.98;1.45;;;;;;;32.65;28.23;100110.17;1814169;79;21993;-77
2023/08/23 10:42:09;;;;;;;6.03;1.50;;;;;;;32.44;27.93;100104.87;1812057;79;21978;-78
2023/08/23 10:45:19;;;;;;;2.52;1.55;;;;;;;32.28;28.18;100103.88;1810229;79;21367;-77
2023/08/23 10:48:29;;;;;;;9.43;1.90;;;;;;;32.33;28.19;100095.83;1813413;79;21300;-77
2023/08/23 10:51:35;;;;;;;3.77;1.60;;;;;;;32.38;28.16;100090.63;1812806;79;21344;-76
2023/08/23 10:54:43;;;;;;;7.85;1.62;;;;;;;32.61;27.05;100090.80;1813490;79;21309;-78
2023/08/23 10:57:48;;;;;;;7.25;1.72;;;;;;;32.92;26.98;100090.70;1813332;78;22694;-78
2023/08/23 11:00:55;;;;;;;3.80;1.70;;;;;;;32.86;27.44;100077.02;1775074;80;21723;-78
2023/08/23 11:04:01;;;;;;;4.62;1.82;;;;;;;32.59;27.54;100097.34;1758181;81;21320;-78
2023/08/23 11:07:06;;;;;;;4.20;1.40;;;;;;;32.93;26.94;100084.45;1762446;81;21354;-77
2023/08/23 11:10:16;;;;;;;3.00;1.77;;;;;;;33.19;26.75;100095.23;1772587;81;21874;-78
2023/08/23 11:13:23;;;;;;;3.50;1.60;;;;;;;33.27;26.19;100097.23;1746916;81;21321;-77
2023/08/23 11:16:29;;;;;;;4.80;1.80;;;;;;;32.88;26.78;100086.83;1744362;82;21320;-77
2023/08/23 11:19:36;;;;;;;4.85;1.70;;;;;;;32.95;26.77;100082.14;1759802;81;22214;-77
2023/08/23 11:22:42;;;;;;;2.40;1.47;;;;;;;32.91;27.25;100078.30;1773833;80;21267;-78
2023/08/23 11:25:47;;;;;;;4.00;1.75;;;;;;;32.99;26.75;100078.90;1775112;80;21338;-77
2023/08/23 11:28:54;;;;;;;2.42;1.72;;;;;;;33.19;26.29;100075.98;1774505;80;21338;-77
2023/08/23 11:32:02;;;;;;;3.60;1.62;;;;;;;33.24;26.35;100072.39;1774510;80;21870;-78
2023/08/23 11:35:08;;;;;;;3.17;1.98;;;;;;;33.13;26.21;100071.66;1752326;80;21827;-77
2023/08/23 11:38:15;;;;;;;9.75;1.62;;;;;;;33.15;26.98;100072.97;1762840;80;21390;-78
2023/08/23 11:41:21;;;;;;;4.00;1.72;;;;;;;33.06;26.25;100065.88;1775005;80;21335;-77
2023/08/23 11:44:26;;;;;;;5.65;2.00;;;;;;;33.48;26.07;100061.98;1774485;80;21962;-77
2023/08/23 11:47:34;;;;;;;3.30;1.40;;;;;;;33.33;26.47;100057.63;1763366;81;21951;-77
2023/08/23 11:50:39;;;;;;;3.75;1.90;;;;;;;33.21;26.40;100058.88;1752571;81;22572;-77
2023/08/23 11:53:48;;;;;;;2.72;1.47;;;;;;;32.91;26.44;100066.97;1757790;81;21315;-77
2023/08/23 11:56:54;;;;;;;4.60;2.08;;;;;;;32.92;26.54;100067.21;1771465;81;21319;-77
2023/08/23 11:59:59;;;;;;;5.45;1.60;;;;;;;32.59;27.05;100057.71;1758401;81;21932;-78
2023/08/23 12:03:04;;;;;;;3.40;1.50;;;;;;;32.47;26.84;100060.36;1774037;80;21362;-78
2023/08/23 12:06:12;;;;;;;2.40;1.47;;;;;;;32.99;26.60;100049.98;1752900;80;21313;-77
2023/08/23 12:09:19;;;;;;;4.50;1.87;;;;;;;33.05;25.81;100050.64;1751365;82;21332;-77
2023/08/23 12:12:24;;;;;;;2.67;1.60;;;;;;;32.67;26.08;100054.66;1751338;82;21375;-77
2023/08/23 12:15:31;;;;;;;5.83;1.75;;;;;;;32.79;26.48;100059.94;1750114;82;21383;-77
2023/08/23 12:18:37;;;;;;;3.98;1.90;;;;;;;32.97;26.15;100057.13;1769993;80;21291;-77
2023/08/23 12:21:43;;;;;;;4.05;1.50;;;;;;;33.23;25.56;100051.48;1783195;80;21280;-78
2023/08/23 12:24:48;;;;;;;6.08;1.90;;;;;;;33.50;25.74;100057.37;1782223;80;21326;-77
2023/08/23 12:27:54;;;;;;;3.45;1.65;;;;;;;33.18;25.71;100036.90;1782254;80;21311;-78
2023/08/23 12:31:01;;;;;;;15.60;2.15;;;;;;;32.88;25.83;100040.09;1780958;80;21343;-79
2023/08/23 12:34:07;;;;;;;6.75;1.90;;;;;;;32.64;26.11;100034.91;1758197;80;21307;-78
2023/08/23 12:37:14;;;;;;;4.83;1.57;;;;;;;32.89;25.83;100040.92;1782593;80;21212;-78
2023/08/23 12:40:19;;;;;;;2.75;1.60;;;;;;;33.06;25.72;100040.97;1781516;80;22242;-78
2023/08/23 12:43:25;;;;;;;7.80;1.70;;;;;;;33.30;25.82;100051.80;1781346;80;21331;-78
2023/08/23 12:46:30;;;;;;;5.25;1.62;;;;;;;33.27;25.61;100043.39;1777000;80;21335;-78
2023/08/23 12:49:37;;;;;;;5.95;1.80;;;;;;;33.07;25.69;100046.88;1768049;81;21316;-78
2023/08/23 12:52:43;;;;;;;6.05;1.98;;;;;;;32.99;25.89;100046.32;1766135;81;21323;-78
2023/08/23 12:55:48;;;;;;;7.97;1.82;;;;;;;32.94;26.29;100039.41;1766293;81;21307;-79
2023/08/23 12:58:55;;;;;;;5.20;1.77;;;;;;;32.65;26.25;100042.81;1765874;81;21335;-79
2023/08/23 13:02:00;;;;;;;3.05;1.57;;;;;;;32.92;26.48;100041.13;1738550;82;21295;-78
2023/08/23 13:05:07;;;;;;;9.50;2.25;;;;;;;32.97;26.25;100037.30;1753332;81;22495;-78
2023/08/23 13:08:12;;;;;;;4.95;1.60;;;;;;;32.99;26.53;100040.66;1737953;82;22091;-78
2023/08/23 13:11:20;;;;;;;2.98;1.47;;;;;;;32.71;26.77;100038.09;1752623;81;21344;-77
2023/08/23 13:14:27;;;;;;;6.80;1.50;;;;;;;32.96;26.61;100039.89;1737482;82;21703;-77
2023/08/23 13:17:33;;;;;;;4.03;1.80;;;;;;;32.94;26.55;100039.41;1752672;81;21717;-77
2023/08/23 13:20:40;;;;;;;5.12;1.60;;;;;;;32.97;26.54;100033.05;1742791;82;21306;-77
2023/08/23 13:23:47;;;;;;;2.20;1.60;;;;;;;32.87;26.77;100031.35;1756749;81;21348;-77
2023/08/23 13:26:53;;;;;;;3.33;1.70;;;;;;;32.88;26.55;100039.27;1746119;82;21263;-77
2023/08/23 13:29:59;;;;;;;3.10;1.50;;;;;;;32.99;26.97;100042.90;1757402;81;21312;-78
2023/08/23 13:33:06;;;;;;;4.17;1.30;;;;;;;32.81;27.00;100034.11;1743945;82;21326;-77
2023/08/23 13:36:17;;;;;;;2.98;1.50;;;;;;;32.57;26.89;100031.74;1755761;81;21860;-78
2023/08/23 13:39:21;;;;;;;8.48;2.15;;;;;;;32.74;26.97;100035.17;1745440;82;21213;-77
2023/08/23 13:42:27;;;;;;;4.72;1.87;;;;;;;32.68;27.25;100030.25;1755819;81;21311;-77
2023/08/23 13:45:35;;;;;;;4.22;1.90;;;;;;;32.76;27.46;100032.27;1745190;82;22683;-77
2023/08/23 13:48:44;;;;;;;2.72;1.80;;;;;;;32.91;27.09;100035.81;1755963;81;22548;-77
2023/08/23 13:51:50;;;;;;;7.50;1.75;;;;;;;32.81;27.69;100037.77;1743168;82;21360;-77
2023/08/23 13:54:56;;;;;;;6.83;2.37;;;;;;;32.64;27.36;100042.56;1771722;81;21316;-77
2023/08/23 13:58:02;;;;;;;5.70;2.00;;;;;;;32.77;26.82;100041.01;1740683;82;21351;-77
2023/08/23 14:01:09;;;;;;;5.17;1.60;;;;;;;32.90;26.56;100044.03;1771465;81;21363;-78
2023/08/23 14:04:16;;;;;;;3.90;1.90;;;;;;;32.60;26.98;100045.80;1737740;82;21726;-78
2023/08/23 14:07:22;;;;;;;8.03;2.02;;;;;;;32.37;27.25;100054.98;1740818;82;21892;-77
2023/08/23 14:10:28;;;;;;;7.15;2.00;;;;;;;32.41;27.33;100040.43;1740875;82;21317;-77
2023/08/23 14:13:34;;;;;;;4.30;1.55;;;;;;;32.38;27.78;100043.36;1740784;82;21228;-77
2023/08/23 14:16:41;;;;;;;4.10;2.15;;;;;;;32.39;27.45;100039.94;1740755;82;21884;-78
2023/08/23 14:19:54;;;;;;;7.45;2.25;;;;;;;32.62;27.20;100044.33;1741781;82;21865;-77
2023/08/23 14:23:00;;;;;;;7.03;1.72;;;;;;;32.45;27.58;100051.34;1740234;82;21310;-77
2023/08/23 14:26:03;;;;;;;6.45;1.95;;;;;;;32.56;27.36;100055.56;1767251;81;21672;-77
2023/08/23 14:28:53;;;;;;;5.75;2.00;;;;;;;32.43;27.70;100053.11;1767236;81;21300;-77
2023/08/23 14:31:39;;;;;;;4.45;1.62;;;;;;;32.46;27.96;100051.59;1768583;81;21917;-76
2023/08/23 14:34:34;;;;;;;3.85;1.85;;;;;;;32.57;27.39;100045.90;1768242;81;21303;-77